createdAt,value
2022-11-13T00:01:42.909Z,7.50
2022-11-13T00:04:10.742Z,7.30
2022-11-13T00:06:52.521Z,7.40
2022-11-13T00:09:25.483Z,7.50
2022-11-13T00:12:04.098Z,7.50
2022-11-13T00:14:33.737Z,7.50
2022-11-13T00:17:00.876Z,7.50
2022-11-13T00:19:27.812Z,7.50
2022-11-13T00:21:56.881Z,7.40
2022-11-13T00:24:25.547Z,7.50
2022-11-13T00:26:52.478Z,7.30
2022-11-13T00:29:19.503Z,7.30
2022-11-13T00:31:52.280Z,7.20
2022-11-13T00:34:45.954Z,7.10
2022-11-13T00:37:16.353Z,7.00
2022-11-13T00:39:45.020Z,6.90
2022-11-13T00:42:12.150Z,6.90
2022-11-13T00:44:45.272Z,6.90
2022-11-13T00:47:12.386Z,6.80
2022-11-13T00:49:39.855Z,6.80
2022-11-13T00:52:06.849Z,6.80
2022-11-13T00:54:33.983Z,6.80
2022-11-13T00:57:02.215Z,6.80
2022-11-13T00:59:29.347Z,6.70
2022-11-13T01:01:56.360Z,6.70
2022-11-13T01:04:26.339Z,6.80
2022-11-13T01:07:05.630Z,6.80
2022-11-13T01:09:32.569Z,6.60
2022-11-13T01:12:07.399Z,6.50
2022-11-13T01:14:43.452Z,6.50
2022-11-13T01:17:13.370Z,6.60
2022-11-13T01:19:40.383Z,6.60
2022-11-13T01:22:16.705Z,6.40
2022-11-13T01:24:43.865Z,6.10
2022-11-13T01:27:18.185Z,6.10
2022-11-13T01:29:45.852Z,6.20
2022-11-13T01:32:15.150Z,6.10
2022-11-13T01:34:48.025Z,6.10
2022-11-13T01:37:15.079Z,6.00
2022-11-13T01:39:41.970Z,6.00
2022-11-13T01:42:25.755Z,6.00
2022-11-13T01:45:04.549Z,5.90
2022-11-13T01:47:34.555Z,5.90
2022-11-13T01:50:14.894Z,5.80
2022-11-13T01:52:45.325Z,5.80
2022-11-13T01:55:19.733Z,6.00
2022-11-13T01:57:50.857Z,6.10
2022-11-13T02:00:31.192Z,6.00
2022-11-13T02:02:58.318Z,5.80
2022-11-13T02:05:31.645Z,5.80
2022-11-13T02:08:03.211Z,5.70
2022-11-13T02:10:36.292Z,5.60
2022-11-13T02:13:04.644Z,5.50
2022-11-13T02:15:36.413Z,5.50
2022-11-13T02:18:07.008Z,5.50
2022-11-13T02:20:43.397Z,5.50
2022-11-13T02:23:20.890Z,5.60
2022-11-13T02:25:52.427Z,5.50
2022-11-13T02:28:22.375Z,5.50
2022-11-13T02:30:49.427Z,5.50
2022-11-13T02:33:31.192Z,5.70
2022-11-13T02:36:00.693Z,5.50
2022-11-13T02:38:28.066Z,5.50
2022-11-13T02:40:58.774Z,5.50
2022-11-13T02:43:34.770Z,5.50
2022-11-13T02:46:01.712Z,5.50
2022-11-13T02:48:31.730Z,5.60
2022-11-13T02:51:01.821Z,5.70
2022-11-13T02:56:14.212Z,5.50
2022-11-13T02:58:41.359Z,5.50
2022-11-13T03:01:11.605Z,5.60
2022-11-13T03:03:58.477Z,5.60
2022-11-13T03:06:25.657Z,5.30
2022-11-13T03:08:55.664Z,5.50
2022-11-13T03:11:26.894Z,5.40
2022-11-13T03:13:59.740Z,5.50
2022-11-13T03:16:27.467Z,5.40
2022-11-13T03:19:05.769Z,5.30
2022-11-13T03:21:33.318Z,5.40
2022-11-13T03:24:03.147Z,5.40
2022-11-13T03:26:31.414Z,5.50
2022-11-13T03:29:00.889Z,5.40
2022-11-13T03:31:27.934Z,5.40
2022-11-13T03:34:01.000Z,5.30
2022-11-13T03:36:39.990Z,5.40
2022-11-13T03:39:06.945Z,5.10
2022-11-13T03:41:35.343Z,5.30
2022-11-13T03:44:22.457Z,5.30
2022-11-13T03:46:52.399Z,5.40
2022-11-13T03:49:19.457Z,5.30
2022-11-13T03:51:54.972Z,5.30
2022-11-13T03:54:23.906Z,5.20
2022-11-13T03:56:58.054Z,5.30
2022-11-13T03:59:25.150Z,5.20
2022-11-13T04:02:01.434Z,5.10
2022-11-13T04:04:31.347Z,5.00
2022-11-13T04:06:58.275Z,5.00
2022-11-13T04:09:25.494Z,5.00
2022-11-13T04:11:59.142Z,5.10
2022-11-13T04:14:36.515Z,5.00
2022-11-13T04:17:11.002Z,5.10
2022-11-13T04:19:40.924Z,5.10
2022-11-13T04:22:16.023Z,5.10
2022-11-13T04:24:49.155Z,5.10
2022-11-13T04:27:30.909Z,5.10
2022-11-13T04:30:00.550Z,5.20
2022-11-13T04:32:31.537Z,5.20
2022-11-13T04:35:07.357Z,5.20
2022-11-13T04:37:40.247Z,5.20
2022-11-13T04:40:09.769Z,5.10
2022-11-13T04:42:49.483Z,5.00
2022-11-13T04:45:22.239Z,4.90
2022-11-13T04:47:58.459Z,4.80
2022-11-13T04:50:25.761Z,4.80
2022-11-13T04:53:04.586Z,4.90
2022-11-13T04:55:37.272Z,4.90
2022-11-13T04:58:11.621Z,4.90
2022-11-13T05:00:44.641Z,5.00
2022-11-13T05:03:11.589Z,4.90
2022-11-13T05:05:38.524Z,4.90
2022-11-13T05:08:05.571Z,4.80
2022-11-13T05:10:32.662Z,4.80
2022-11-13T05:13:02.393Z,4.70
2022-11-13T05:15:30.715Z,4.80
2022-11-13T05:17:57.864Z,4.70
2022-11-13T05:20:31.393Z,4.60
2022-11-13T05:22:58.752Z,4.60
2022-11-13T05:25:25.870Z,4.70
2022-11-13T05:27:52.777Z,4.80
2022-11-13T05:30:20.534Z,4.80
2022-11-13T05:32:52.307Z,4.80
2022-11-13T05:35:22.579Z,4.80
2022-11-13T05:37:52.374Z,4.70
2022-11-13T05:40:19.575Z,4.70
2022-11-13T05:42:46.665Z,4.70
2022-11-13T05:45:15.930Z,4.60
2022-11-13T05:47:57.797Z,4.60
2022-11-13T05:50:27.262Z,4.70
2022-11-13T05:52:57.438Z,4.80
2022-11-13T05:55:26.704Z,4.80
2022-11-13T05:57:53.711Z,4.80
2022-11-13T06:00:23.696Z,4.80
2022-11-13T06:02:50.607Z,4.70
2022-11-13T06:05:18.878Z,4.70
2022-11-13T06:07:48.963Z,4.70
2022-11-13T06:10:16.937Z,4.70
2022-11-13T06:12:49.926Z,4.60
2022-11-13T06:15:23.389Z,4.60
2022-11-13T06:17:53.088Z,4.60
2022-11-13T06:20:21.519Z,4.60
2022-11-13T06:22:48.434Z,4.50
2022-11-13T06:25:15.638Z,4.60
2022-11-13T06:27:48.313Z,4.60
2022-11-13T06:30:19.023Z,4.60
2022-11-13T06:32:54.310Z,4.60
2022-11-13T06:35:22.572Z,4.70
2022-11-13T06:37:56.878Z,4.60
2022-11-13T06:40:32.889Z,4.60
2022-11-13T06:43:00.246Z,4.60
2022-11-13T06:45:29.181Z,4.60
2022-11-13T06:47:56.096Z,4.60
2022-11-13T06:50:33.378Z,4.60
2022-11-13T06:53:00.441Z,4.50
2022-11-13T06:55:27.354Z,4.40
2022-11-13T06:57:54.786Z,4.40
2022-11-13T07:00:24.969Z,4.40
2022-11-13T07:03:01.114Z,4.40
2022-11-13T07:05:28.067Z,4.30
2022-11-13T07:07:56.348Z,4.40
2022-11-13T07:10:29.328Z,4.60
2022-11-13T07:13:01.225Z,4.60
2022-11-13T07:15:36.266Z,4.70
2022-11-13T07:18:05.090Z,4.70
2022-11-13T07:20:33.233Z,4.80
2022-11-13T07:23:04.732Z,4.90
2022-11-13T07:25:31.775Z,4.80
2022-11-13T07:28:00.055Z,4.90
2022-11-13T07:30:27.142Z,4.90
2022-11-13T07:33:02.159Z,4.80
2022-11-13T07:35:29.149Z,4.80
2022-11-13T07:37:56.448Z,4.80
2022-11-13T07:40:25.154Z,4.80
2022-11-13T07:43:01.722Z,4.80
2022-11-13T07:45:29.741Z,4.90
2022-11-13T07:48:09.859Z,4.90
2022-11-13T07:50:39.690Z,5.00
2022-11-13T07:53:09.725Z,5.10
2022-11-13T07:55:37.968Z,5.10
2022-11-13T07:58:07.750Z,5.20
2022-11-13T08:00:35.898Z,5.10
2022-11-13T08:03:06.795Z,5.10
2022-11-13T08:05:36.536Z,5.20
2022-11-13T08:08:07.006Z,5.20
2022-11-13T08:10:34.348Z,5.20
2022-11-13T08:13:08.231Z,5.20
2022-11-13T08:15:54.115Z,5.20
2022-11-13T08:18:28.043Z,5.20
2022-11-13T08:20:55.750Z,5.20
2022-11-13T08:23:25.552Z,5.30
2022-11-13T08:26:08.193Z,5.40
2022-11-13T08:28:40.304Z,5.40
2022-11-13T08:31:17.749Z,5.40
2022-11-13T08:33:56.789Z,5.40
2022-11-13T08:36:31.277Z,5.40
2022-11-13T08:39:19.541Z,5.40
2022-11-13T08:41:46.469Z,5.50
2022-11-13T08:44:17.726Z,5.50
2022-11-13T08:46:50.490Z,5.50
2022-11-13T08:49:17.435Z,5.60
2022-11-13T08:51:44.456Z,5.70
2022-11-13T08:54:11.509Z,5.80
2022-11-13T08:56:51.523Z,5.90
2022-11-13T08:59:27.447Z,6.00
2022-11-13T09:01:59.421Z,6.00
2022-11-13T09:04:29.266Z,6.10
2022-11-13T09:06:56.224Z,6.10
2022-11-13T09:09:23.499Z,6.20
2022-11-13T09:11:56.493Z,6.20
2022-11-13T09:14:28.230Z,6.40
2022-11-13T09:16:58.507Z,6.50
2022-11-13T09:19:25.698Z,6.60
2022-11-13T09:21:52.761Z,6.70
2022-11-13T09:24:19.886Z,6.80
2022-11-13T09:26:52.848Z,6.80
2022-11-13T09:29:19.953Z,6.90
2022-11-13T09:31:56.119Z,7.00
2022-11-13T09:34:25.799Z,7.10
2022-11-13T09:36:53.110Z,7.20
2022-11-13T09:39:26.369Z,7.40
2022-11-13T09:42:00.321Z,7.50
2022-11-13T09:44:41.490Z,7.60
2022-11-13T09:47:23.133Z,7.70
2022-11-13T09:49:56.577Z,7.80
2022-11-13T09:52:31.279Z,8.00
2022-11-13T09:54:59.048Z,8.10
2022-11-13T09:57:35.394Z,8.30
2022-11-13T10:00:06.683Z,8.40
2022-11-13T10:02:53.595Z,8.40
2022-11-13T10:05:29.219Z,8.40
2022-11-13T10:08:07.023Z,8.30
2022-11-13T10:10:55.879Z,8.40
2022-11-13T10:13:29.250Z,8.60
2022-11-13T10:16:04.747Z,8.70
2022-11-13T10:18:36.413Z,8.60
2022-11-13T10:21:15.704Z,8.50
2022-11-13T10:23:50.282Z,8.40
2022-11-13T10:26:20.316Z,8.40
2022-11-13T10:28:51.543Z,8.50
2022-11-13T10:31:18.765Z,8.50
2022-11-13T10:33:47.413Z,8.60
2022-11-13T10:36:20.825Z,8.60
2022-11-13T10:38:54.698Z,8.70
2022-11-13T10:41:22.219Z,8.60
2022-11-13T10:44:02.286Z,8.70
2022-11-13T10:46:32.020Z,8.70
2022-11-13T10:49:13.714Z,8.80
2022-11-13T10:51:41.183Z,8.90
2022-11-13T10:54:25.440Z,8.90
2022-11-13T10:57:00.936Z,9.00
2022-11-13T10:59:39.716Z,9.00
2022-11-13T11:02:17.989Z,9.10
2022-11-13T11:04:47.121Z,9.20
2022-11-13T11:07:20.652Z,9.30
2022-11-13T11:09:49.212Z,9.40
2022-11-13T11:12:19.194Z,9.50
2022-11-13T11:15:08.581Z,9.50
2022-11-13T11:17:44.395Z,9.60
2022-11-13T11:20:24.051Z,9.70
2022-11-13T11:22:57.375Z,9.80
2022-11-13T11:25:36.259Z,9.90
2022-11-13T11:28:11.157Z,10.00
2022-11-13T11:30:44.916Z,10.10
2022-11-13T11:33:28.091Z,10.10
2022-11-13T11:36:02.121Z,10.20
2022-11-13T11:38:36.544Z,10.30
2022-11-13T11:41:16.055Z,10.40
2022-11-13T11:43:57.681Z,10.50
2022-11-13T11:46:25.114Z,10.50
2022-11-13T11:49:00.804Z,10.60
2022-11-13T11:51:49.237Z,10.70
2022-11-13T11:54:37.950Z,10.70
2022-11-13T11:57:38.730Z,10.80
2022-11-13T12:00:12.814Z,10.90
2022-11-13T12:03:30.681Z,11.00
2022-11-13T12:06:13.413Z,11.10
2022-11-13T12:08:55.359Z,11.20
2022-11-13T12:11:28.598Z,11.30
2022-11-13T12:14:08.452Z,11.40
2022-11-13T12:16:46.513Z,11.30
2022-11-13T12:19:39.346Z,11.20
2022-11-13T12:22:45.735Z,11.30
2022-11-13T12:25:29.374Z,11.20
2022-11-13T12:28:05.263Z,11.20
2022-11-13T12:30:56.423Z,11.10
2022-11-13T12:33:47.605Z,11.10
2022-11-13T12:36:17.778Z,11.10
2022-11-13T12:39:14.597Z,11.10
2022-11-13T12:41:51.156Z,11.00
2022-11-13T12:44:24.915Z,11.00
2022-11-13T12:46:54.648Z,10.90
2022-11-13T12:49:34.497Z,10.90
2022-11-13T12:52:05.469Z,10.80
2022-11-13T12:54:36.880Z,10.70
2022-11-13T12:57:29.919Z,10.70
2022-11-13T13:00:11.780Z,10.70
2022-11-13T13:03:02.121Z,10.70
2022-11-13T13:05:59.847Z,10.70
2022-11-13T13:09:00.053Z,10.80
2022-11-13T13:11:54.362Z,10.80
2022-11-13T13:14:54.304Z,10.90
2022-11-13T13:17:24.483Z,10.90
2022-11-13T13:20:07.759Z,11.00
2022-11-13T13:25:28.370Z,11.00
2022-11-13T13:28:05.682Z,11.10
2022-11-13T13:31:09.980Z,11.10
2022-11-13T13:34:06.393Z,11.10
2022-11-13T13:36:42.945Z,11.20
2022-11-13T13:42:52.199Z,11.40
2022-11-13T13:45:31.891Z,11.40
2022-11-13T13:48:12.669Z,11.50
2022-11-13T13:50:47.440Z,11.50
2022-11-13T13:53:23.540Z,11.50
2022-11-13T13:55:58.357Z,11.50
2022-11-13T13:58:38.933Z,11.50
2022-11-13T14:01:20.260Z,11.50
2022-11-13T14:04:14.744Z,11.50
2022-11-13T14:06:50.006Z,11.50
2022-11-13T14:09:20.455Z,11.50
2022-11-13T14:12:02.455Z,11.60
2022-11-13T14:14:33.897Z,11.60
2022-11-13T14:17:08.404Z,11.60
2022-11-13T14:19:36.908Z,11.60
2022-11-13T14:22:06.523Z,11.70
2022-11-13T14:27:34.317Z,11.70
2022-11-13T14:30:30.418Z,11.70
2022-11-13T14:35:55.175Z,11.80
2022-11-13T14:38:25.112Z,11.70
2022-11-13T14:40:55.500Z,11.70
2022-11-13T14:43:30.767Z,11.80
2022-11-13T14:46:00.830Z,11.80
2022-11-13T14:48:30.030Z,11.80
2022-11-13T14:51:23.442Z,11.80
2022-11-13T14:53:59.411Z,11.80
2022-11-13T14:56:35.404Z,11.80
2022-11-13T14:59:14.375Z,11.80
2022-11-13T15:01:57.347Z,11.60
2022-11-13T15:04:24.866Z,11.60
2022-11-13T15:06:57.223Z,11.50
2022-11-13T15:09:31.309Z,11.50
2022-11-13T15:12:01.141Z,11.50
2022-11-13T15:14:39.886Z,11.40
2022-11-13T15:17:12.482Z,11.40
2022-11-13T15:19:43.135Z,11.30
2022-11-13T15:22:26.438Z,11.20
2022-11-13T15:24:57.951Z,11.20
2022-11-13T15:27:31.370Z,11.10
2022-11-13T15:30:01.367Z,11.10
2022-11-13T15:32:28.901Z,11.00
2022-11-13T15:34:59.012Z,11.00
2022-11-13T15:37:27.350Z,10.80
2022-11-13T15:39:54.309Z,10.70
2022-11-13T15:42:30.420Z,10.60
2022-11-13T15:44:57.695Z,10.50
2022-11-13T15:47:34.511Z,10.40
2022-11-13T15:50:15.644Z,10.40
2022-11-13T15:52:47.893Z,10.30
2022-11-13T15:55:25.432Z,10.30
2022-11-13T15:57:53.431Z,10.10
2022-11-13T16:00:24.965Z,10.00
2022-11-13T16:02:54.706Z,10.00
2022-11-13T16:05:29.150Z,9.90
2022-11-13T16:08:12.524Z,9.80
2022-11-13T16:10:39.542Z,9.80
2022-11-13T16:13:14.023Z,9.70
2022-11-13T16:15:40.969Z,9.70
2022-11-13T16:18:27.006Z,9.60
2022-11-13T16:20:54.178Z,9.50
2022-11-13T16:23:22.612Z,9.40
2022-11-13T16:25:53.759Z,9.50
2022-11-13T16:28:20.811Z,9.40
2022-11-13T16:30:52.587Z,9.40
2022-11-13T16:33:20.090Z,9.30
2022-11-13T16:35:48.972Z,9.20
2022-11-13T16:38:15.925Z,9.10
2022-11-13T16:40:49.042Z,9.10
2022-11-13T16:43:16.673Z,9.00
2022-11-13T16:45:52.566Z,8.90
2022-11-13T16:48:19.718Z,8.80
2022-11-13T16:50:49.648Z,8.70
2022-11-13T16:53:18.017Z,8.70
2022-11-13T16:55:46.474Z,8.60
2022-11-13T16:58:14.360Z,8.60
2022-11-13T17:00:41.479Z,8.60
2022-11-13T17:03:09.364Z,8.60
2022-11-13T17:05:36.451Z,8.60
2022-11-13T17:08:03.583Z,8.60
2022-11-13T17:10:32.598Z,8.50
2022-11-13T17:13:01.804Z,8.50
2022-11-13T17:15:28.909Z,8.60
2022-11-13T17:17:58.345Z,8.60
2022-11-13T17:20:25.483Z,8.50
2022-11-13T17:22:52.473Z,8.50
2022-11-13T17:25:20.534Z,8.30
2022-11-13T17:27:51.183Z,8.30
2022-11-13T17:30:19.850Z,8.30
2022-11-13T17:32:46.740Z,8.40
2022-11-13T17:35:13.864Z,8.40
2022-11-13T17:37:41.185Z,8.30
2022-11-13T17:40:10.479Z,8.30
2022-11-13T17:42:40.513Z,8.40
2022-11-13T17:45:08.948Z,8.40
2022-11-13T17:47:37.390Z,8.40
2022-11-13T17:50:07.567Z,8.20
2022-11-13T17:52:34.934Z,8.10
2022-11-13T17:55:05.779Z,8.10
2022-11-13T17:57:33.431Z,8.20
2022-11-13T18:00:00.629Z,8.20
2022-11-13T18:02:27.676Z,8.30
2022-11-13T18:04:58.999Z,8.50
2022-11-13T18:07:26.140Z,8.50
2022-11-13T18:09:53.267Z,8.20
2022-11-13T18:12:20.220Z,8.10
2022-11-13T18:14:52.350Z,8.10
2022-11-13T18:17:23.278Z,8.10
2022-11-13T18:19:54.838Z,8.10
2022-11-13T18:22:26.923Z,7.90
2022-11-13T18:24:54.556Z,7.80
2022-11-13T18:27:21.594Z,7.80
2022-11-13T18:29:48.489Z,7.80
2022-11-13T18:32:15.489Z,7.70
2022-11-13T18:34:42.408Z,7.70
2022-11-13T18:37:09.426Z,7.70
2022-11-13T18:39:37.838Z,7.80
2022-11-13T18:42:04.900Z,7.60
2022-11-13T18:44:31.880Z,7.70
2022-11-13T18:46:59.081Z,7.80
2022-11-13T18:49:26.517Z,7.70
2022-11-13T18:51:53.480Z,7.70
2022-11-13T18:54:20.985Z,7.70
2022-11-13T18:56:51.275Z,7.70
2022-11-13T18:59:18.550Z,7.70
2022-11-13T19:01:45.600Z,7.60
2022-11-13T19:04:22.876Z,7.60
2022-11-13T19:06:51.178Z,7.60
2022-11-13T19:09:19.127Z,7.70
2022-11-13T19:11:46.624Z,7.60
2022-11-13T19:14:17.157Z,7.50
2022-11-13T19:16:44.462Z,7.50
2022-11-13T19:19:16.468Z,7.50
2022-11-13T19:21:44.090Z,7.50
2022-11-13T19:24:12.047Z,7.40
2022-11-13T19:26:40.550Z,7.40
2022-11-13T19:29:07.781Z,7.40
2022-11-13T19:31:43.292Z,7.30
2022-11-13T19:34:11.038Z,7.30
2022-11-13T19:36:40.143Z,7.30
2022-11-13T19:39:21.569Z,7.40
2022-11-13T19:41:54.179Z,7.20
2022-11-13T19:44:21.189Z,7.30
2022-11-13T19:46:51.301Z,7.40
2022-11-13T19:49:21.085Z,7.40
2022-11-13T19:51:53.966Z,7.30
2022-11-13T19:54:30.173Z,7.40
2022-11-13T19:56:57.233Z,7.30
2022-11-13T19:59:24.367Z,7.30
2022-11-13T20:01:58.898Z,7.20
2022-11-13T20:04:26.164Z,7.20
2022-11-13T20:06:55.921Z,7.20
2022-11-13T20:09:25.199Z,7.20
2022-11-13T20:11:55.149Z,7.20
2022-11-13T20:14:34.452Z,7.20
2022-11-13T20:17:13.907Z,7.20
2022-11-13T20:19:40.923Z,7.20
2022-11-13T20:22:07.952Z,7.20
2022-11-13T20:24:40.562Z,7.10
2022-11-13T20:27:07.481Z,7.00
2022-11-13T20:29:37.067Z,7.00
2022-11-13T20:32:04.563Z,7.00
2022-11-13T20:34:35.963Z,7.00
2022-11-13T20:37:02.932Z,7.00
2022-11-13T20:39:30.096Z,7.00
2022-11-13T20:41:57.079Z,7.00
2022-11-13T20:44:24.315Z,6.90
2022-11-13T20:46:51.415Z,6.90
2022-11-13T20:49:18.564Z,6.90
2022-11-13T20:51:47.044Z,6.80
2022-11-13T20:54:14.127Z,6.90
2022-11-13T20:56:41.266Z,6.80
2022-11-13T20:59:08.355Z,6.80
2022-11-13T21:01:36.980Z,6.80
2022-11-13T21:04:04.520Z,6.80
2022-11-13T21:06:34.716Z,6.80
2022-11-13T21:09:03.569Z,6.70
2022-11-13T21:11:30.510Z,6.70
2022-11-13T21:14:12.454Z,6.80
2022-11-13T21:16:39.387Z,6.80
2022-11-13T21:19:06.843Z,6.90
2022-11-13T21:21:33.939Z,6.90
2022-11-13T21:24:02.420Z,6.80
2022-11-13T21:26:29.567Z,6.80
2022-11-13T21:28:57.646Z,6.80
2022-11-13T21:31:25.305Z,6.90
2022-11-13T21:33:59.265Z,6.80
2022-11-13T21:36:28.387Z,6.70
2022-11-13T21:38:56.371Z,6.70
2022-11-13T21:41:27.934Z,6.70
2022-11-13T21:43:58.285Z,6.70
2022-11-13T21:46:28.116Z,6.70
2022-11-13T21:48:57.408Z,6.70
2022-11-13T21:51:28.511Z,6.80
2022-11-13T21:53:55.997Z,6.70
2022-11-13T21:56:23.881Z,6.70
2022-11-13T21:58:56.763Z,6.70
2022-11-13T22:01:25.471Z,6.60
2022-11-13T22:03:55.408Z,6.60
2022-11-13T22:06:25.105Z,6.50
2022-11-13T22:08:57.711Z,6.50
2022-11-13T22:11:30.451Z,6.60
2022-11-13T22:13:59.488Z,6.60
2022-11-13T22:16:29.467Z,6.50
2022-11-13T22:18:58.168Z,6.50
2022-11-13T22:21:29.320Z,6.50
2022-11-13T22:23:57.095Z,6.50
2022-11-13T22:26:26.392Z,6.50
2022-11-13T22:28:54.622Z,6.40
2022-11-13T22:31:25.443Z,6.30
2022-11-13T22:33:55.229Z,6.30
2022-11-13T22:36:26.516Z,6.30
2022-11-13T22:38:58.650Z,6.30
2022-11-13T22:41:31.180Z,6.20
2022-11-13T22:44:00.025Z,6.20
2022-11-13T22:46:30.736Z,6.20
2022-11-13T22:49:01.563Z,6.30
2022-11-13T22:51:35.182Z,6.20
2022-11-13T22:54:04.745Z,6.30
2022-11-13T22:56:33.716Z,6.40
2022-11-13T22:59:03.293Z,6.20
2022-11-13T23:01:33.679Z,6.20
2022-11-13T23:04:10.788Z,6.30
2022-11-13T23:06:42.972Z,6.30
2022-11-13T23:09:10.377Z,6.30
2022-11-13T23:11:40.348Z,6.20
2022-11-13T23:14:11.087Z,6.30
2022-11-13T23:16:39.981Z,6.20
2022-11-13T23:19:12.542Z,6.10
2022-11-13T23:21:39.546Z,6.20
2022-11-13T23:24:15.271Z,6.30
2022-11-13T23:26:45.128Z,6.10
2022-11-13T23:29:12.480Z,6.00
2022-11-13T23:32:07.346Z,6.10
2022-11-13T23:34:57.938Z,6.10
2022-11-13T23:37:21.364Z,6.10
2022-11-13T23:39:48.297Z,6.10
2022-11-13T23:42:23.999Z,6.00
2022-11-13T23:45:03.522Z,6.00
2022-11-13T23:47:37.994Z,5.80
2022-11-13T23:50:06.511Z,6.00
2022-11-13T23:52:35.566Z,6.00
2022-11-13T23:55:04.827Z,5.90
2022-11-13T23:57:35.012Z,5.90
